CWRX

Rowley Island Airport

Canada
METAR CWRX 182005Z AUTO 30013G19KT ////SM //// FEW002 M29/M32 A2992
Observed Flight Rules
Jan-18 @ 20:05 UTC (50 minutes ago)
Wind Clouds
300° at 13 knots
 Gusting to 19 knots
  • Few at 200' AGL
Temperatures Readings
Current -29°C / -20°F
Dewpoint -32°C / -26°F
Humidity 75%
Altimeter 29.92" Hg
Pressure 1013.22 hPa
Elevation 41
METAR CWRX 182005Z AUTO 30013G19KT ////SM //// FEW002 M29/M32 A2992
Observed Flight Rules
Jan-18 @ 20:05 UTC
(50 minutes ago)
Wind
300° at 13 knots
 Gusting to 19 knots
Clouds
  • Few at 200' AGL
Temperature Dewpoint
-29°C / -20°F -32°C / -26°F
Humidity Altimeter Pressure
75% 29.92" Hg 1013.22 hPa